Time;durP1;ratioP1;P1;durP2;ratioP2;P2;SDS_P1;SDS_P2;PMS_P1;PMS_P2;Temp;Humidity;BMP_temperature;BMP_pressure;BME280_temperature;BME280_humidity;BME280_pressure;Samples;Min_cycle;Max_cycle;Signal;HPM_P1;HPM_P2
2023/07/04 00:02:14;;;;;;;7.17;1.93;;;18.30;99.90;;;;;;5041821;28;20823;-79
2023/07/04 00:04:43;;;;;;;6.10;2.47;;;18.30;1.00;;;;;;5029554;28;20535;-80
2023/07/04 00:07:09;;;;;;;6.90;2.33;;;18.20;1.00;;;;;;5032771;28;21003;-79
2023/07/04 00:09:36;;;;;;;5.63;2.30;;;18.20;1.00;;;;;;5035956;28;20448;-80
2023/07/04 00:12:03;;;;;;;7.33;2.30;;;18.20;1.00;;;;;;5043899;28;20483;-77
2023/07/04 00:14:32;;;;;;;6.60;2.30;;;18.20;1.00;;;;;;5041481;28;20452;-81
2023/07/04 00:16:59;;;;;;;10.27;2.63;;;18.20;1.00;;;;;;5047874;28;20446;-80
2023/07/04 00:19:29;;;;;;;7.50;2.87;;;18.20;1.00;;;;;;5048176;28;20492;-79
2023/07/04 00:21:57;;;;;;;8.47;2.70;;;18.20;1.00;;;;;;5047497;28;20502;-79
2023/07/04 00:24:23;;;;;;;7.50;2.90;;;18.20;1.00;;;;;;5047794;28;20458;-79
2023/07/04 00:26:50;;;;;;;6.00;2.63;;;18.20;1.00;;;;;;5048005;28;20546;-80
2023/07/04 00:29:17;;;;;;;7.97;3.23;;;18.20;1.00;;;;;;5049551;28;20459;-78
2023/07/04 00:31:45;;;;;;;12.33;3.50;;;18.10;1.00;;;;;;5046526;28;20472;-79
2023/07/04 00:34:14;;;;;;;5.73;2.17;;;18.10;1.00;;;;;;5046133;28;20553;-79
2023/07/04 00:36:40;;;;;;;7.13;2.57;;;18.10;1.00;;;;;;5044112;28;20953;-78
2023/07/04 00:39:08;;;;;;;6.80;3.30;;;18.10;1.00;;;;;;5044452;28;20512;-78
2023/07/04 00:41:35;;;;;;;5.50;2.70;;;18.10;1.00;;;;;;5044828;28;20879;-78
2023/07/04 00:44:09;;;;;;;8.90;2.63;;;18.10;1.00;;;;;;5036499;28;20445;-78
2023/07/04 00:46:39;;;;;;;8.73;2.63;;;18.20;1.00;;;;;;5032423;28;20487;-77
2023/07/04 00:49:18;;;;;;;10.57;3.13;;;18.00;1.00;;;;;;5045747;28;20459;-78
2023/07/04 00:51:48;;;;;;;5.47;2.83;;;18.10;1.00;;;;;;5043634;28;20496;-79
2023/07/04 00:54:19;;;;;;;4.37;2.00;;;18.10;1.00;;;;;;5040701;28;20448;-78
2023/07/04 00:56:46;;;;;;;7.43;3.30;;;18.00;1.00;;;;;;5042152;28;20451;-79
2023/07/04 00:59:13;;;;;;;5.60;2.47;;;18.00;1.00;;;;;;5043401;28;20554;-79
2023/07/04 01:01:42;;;;;;;6.60;2.90;;;18.00;1.00;;;;;;5043465;28;20537;-79
2023/07/04 01:04:10;;;;;;;7.73;2.57;;;17.90;1.00;;;;;;5043744;28;20462;-79
2023/07/04 01:06:46;;;;;;;6.87;3.47;;;17.90;1.00;;;;;;5036060;28;20467;-79
2023/07/04 01:09:17;;;;;;;16.77;3.20;;;17.90;1.00;;;;;;5022512;28;20471;-79
2023/07/04 01:11:46;;;;;;;8.30;3.20;;;17.80;1.00;;;;;;5027147;28;21038;-79
2023/07/04 01:14:22;;;;;;;11.57;2.60;;;17.80;1.00;;;;;;5043005;28;20487;-79
2023/07/04 01:16:49;;;;;;;6.50;2.80;;;17.80;1.00;;;;;;5039674;28;20486;-78
2023/07/04 01:19:25;;;;;;;7.77;2.37;;;17.80;1.00;;;;;;5043600;28;20581;-78
2023/07/04 01:22:01;;;;;;;7.70;2.87;;;17.80;1.00;;;;;;5043241;28;20498;-80
2023/07/04 01:24:37;;;;;;;6.73;2.47;;;17.80;1.00;;;;;;5043654;28;20955;-78
2023/07/04 01:27:06;;;;;;;11.97;2.80;;;17.70;1.00;;;;;;5042837;28;20463;-79
2023/07/04 01:29:36;;;;;;;7.10;2.60;;;17.70;45.80;;;;;;5042564;28;20474;-79
2023/07/04 01:32:03;;;;;;;12.30;3.83;;;17.60;99.90;;;;;;5041986;28;20487;-80
2023/07/04 01:34:33;;;;;;;7.67;2.53;;;17.50;99.90;;;;;;5041664;28;20458;-79
2023/07/04 01:37:01;;;;;;;8.03;2.90;;;17.50;99.90;;;;;;5041246;28;20543;-79
2023/07/04 01:39:28;;;;;;;10.40;3.23;;;17.50;99.90;;;;;;5043236;28;20845;-77
2023/07/04 01:41:55;;;;;;;8.00;2.37;;;17.50;99.90;;;;;;5044990;28;20486;-79
2023/07/04 01:44:24;;;;;;;5.07;2.07;;;17.40;99.90;;;;;;5046382;28;20519;-79
2023/07/04 01:46:52;;;;;;;11.10;3.27;;;17.40;1.00;;;;;;5047941;28;20454;-79
2023/07/04 01:49:19;;;;;;;5.33;2.63;;;17.40;1.00;;;;;;5047834;28;20508;-79
2023/07/04 01:51:46;;;;;;;6.40;1.97;;;17.40;1.00;;;;;;5045287;28;20488;-79
2023/07/04 01:54:17;;;;;;;7.40;2.60;;;17.40;1.00;;;;;;5048441;28;20491;-79
2023/07/04 01:56:46;;;;;;;7.70;2.60;;;17.40;1.00;;;;;;5045050;28;20453;-78
2023/07/04 01:59:13;;;;;;;7.90;2.67;;;17.30;99.90;;;;;;5047109;28;20457;-79
2023/07/04 02:01:41;;;;;;;9.67;2.70;;;17.30;99.90;;;;;;5045740;28;20509;-79
2023/07/04 02:04:08;;;;;;;8.53;3.40;;;17.30;99.90;;;;;;5044921;28;20462;-79
2023/07/04 02:06:35;;;;;;;11.00;3.03;;;17.30;99.90;;;;;;5044522;28;20538;-79
2023/07/04 02:09:02;;;;;;;7.70;2.40;;;17.30;1.00;;;;;;5045522;28;20483;-79
2023/07/04 02:11:29;;;;;;;7.17;3.70;;;17.30;1.00;;;;;;5043993;28;20476;-79
2023/07/04 02:13:56;;;;;;;10.60;3.30;;;17.30;1.00;;;;;;5044990;28;20513;-79
2023/07/04 02:16:23;;;;;;;11.50;3.17;;;17.20;1.00;;;;;;5043702;28;20451;-79
2023/07/04 02:18:51;;;;;;;9.73;2.80;;;17.20;1.00;;;;;;5044019;28;20454;-80
2023/07/04 02:21:18;;;;;;;7.00;2.63;;;17.20;99.90;;;;;;5043547;28;20545;-79
2023/07/04 02:23:45;;;;;;;8.27;3.50;;;17.20;99.90;;;;;;5042560;28;20472;-79
2023/07/04 02:26:13;;;;;;;6.23;2.60;;;17.20;99.90;;;;;;5041552;28;20453;-79
2023/07/04 02:28:40;;;;;;;11.47;2.73;;;17.10;99.90;;;;;;5039810;28;20460;-78
2023/07/04 02:31:08;;;;;;;7.70;2.60;;;17.10;41.30;;;;;;5039973;28;20482;-80
2023/07/04 02:33:35;;;;;;;5.93;2.30;;;17.10;99.90;;;;;;5038837;28;21207;-79
2023/07/04 02:36:04;;;;;;;7.50;2.70;;;16.90;99.90;;;;;;5037799;28;20457;-79
2023/07/04 02:38:30;;;;;;;10.13;2.60;;;16.80;99.90;;;;;;5039633;28;20457;-78
2023/07/04 02:40:57;;;;;;;7.70;2.60;;;16.80;1.00;;;;;;5039765;28;20495;-78
2023/07/04 02:43:24;;;;;;;6.83;2.77;;;16.80;99.90;;;;;;5038480;28;20537;-78
2023/07/04 02:45:51;;;;;;;6.43;2.60;;;16.80;1.00;;;;;;5037647;28;20490;-79
2023/07/04 02:48:19;;;;;;;9.37;2.90;;;16.70;99.90;;;;;;5037320;28;20548;-79
2023/07/04 02:50:45;;;;;;;6.63;2.43;;;16.70;99.90;;;;;;5040089;28;20534;-79
2023/07/04 02:53:20;;;;;;;9.10;3.50;;;16.80;99.90;;;;;;5040950;28;20520;-79
2023/07/04 02:55:47;;;;;;;11.83;2.67;;;16.80;99.90;;;;;;5021920;28;20498;-78
2023/07/04 02:58:14;;;;;;;9.57;3.50;;;16.80;99.90;;;;;;5020720;28;20450;-79
2023/07/04 03:00:41;;;;;;;17.63;3.83;;;16.70;99.90;;;;;;5023697;28;20852;-79
2023/07/04 03:03:08;;;;;;;12.00;2.60;;;16.80;99.90;;;;;;5039342;28;20462;-78
2023/07/04 03:05:35;;;;;;;8.67;3.10;;;16.70;99.90;;;;;;5038580;28;20454;-79
2023/07/04 03:08:02;;;;;;;9.03;2.93;;;16.80;99.90;;;;;;5038580;28;20488;-79
2023/07/04 03:10:30;;;;;;;9.63;2.70;;;16.70;99.90;;;;;;5040472;28;20466;-79
2023/07/04 03:12:57;;;;;;;7.07;3.23;;;16.80;99.90;;;;;;5040084;28;20457;-79
2023/07/04 03:15:24;;;;;;;9.90;2.70;;;16.80;99.90;;;;;;5040796;28;20452;-79
2023/07/04 03:17:51;;;;;;;10.07;2.57;;;16.80;99.90;;;;;;5042594;28;20453;-79
2023/07/04 03:20:18;;;;;;;9.40;2.60;;;16.70;1.00;;;;;;5043149;28;20490;-79
2023/07/04 03:22:46;;;;;;;9.20;2.90;;;16.60;1.00;;;;;;5042020;28;20465;-78
2023/07/04 03:25:15;;;;;;;8.07;3.93;;;16.70;30.30;;;;;;5041862;28;20458;-78
2023/07/04 03:27:44;;;;;;;7.87;3.70;;;16.70;1.00;;;;;;5041658;28;20481;-79
2023/07/04 03:30:12;;;;;;;12.50;3.03;;;16.70;99.90;;;;;;5042363;28;20909;-80
2023/07/04 03:32:39;;;;;;;9.90;2.50;;;16.70;1.00;;;;;;5040604;28;20438;-77
2023/07/04 03:35:07;;;;;;;11.93;3.63;;;16.70;99.90;;;;;;5042153;28;20457;-78
2023/07/04 03:37:35;;;;;;;12.07;3.10;;;16.70;1.00;;;;;;5040725;28;20484;-79
2023/07/04 03:40:06;;;;;;;6.43;2.70;;;16.70;99.90;;;;;;5040266;28;20494;-79
2023/07/04 03:42:33;;;;;;;13.93;3.53;;;16.80;99.90;;;;;;5039591;28;20477;-78
2023/07/04 03:45:01;;;;;;;9.50;3.07;;;16.80;99.90;;;;;;5036946;28;20448;-77
2023/07/04 03:47:28;;;;;;;8.80;2.73;;;16.70;99.90;;;;;;5018537;28;20543;-79
2023/07/04 03:49:55;;;;;;;6.67;2.47;;;16.70;99.90;;;;;;5019742;28;20442;-80
2023/07/04 03:52:22;;;;;;;8.87;3.00;;;16.70;1.00;;;;;;5019737;28;20466;-79
2023/07/04 03:54:49;;;;;;;10.33;3.77;;;16.70;1.00;;;;;;5029847;28;20468;-78
2023/07/04 03:57:16;;;;;;;7.53;3.10;;;16.60;1.00;;;;;;5038380;28;20536;-79
2023/07/04 03:59:43;;;;;;;9.90;3.60;;;16.50;1.00;;;;;;5032088;28;20458;-78
2023/07/04 04:02:11;;;;;;;7.30;2.90;;;16.60;1.00;;;;;;5025438;28;20957;-78
2023/07/04 04:04:39;;;;;;;10.67;3.63;;;16.60;1.00;;;;;;5044420;28;20457;-79
2023/07/04 04:07:07;;;;;;;10.93;3.50;;;16.60;99.90;;;;;;5043673;28;20452;-78
2023/07/04 04:09:34;;;;;;;9.43;3.10;;;16.60;99.90;;;;;;5040605;28;20548;-80
2023/07/04 04:12:01;;;;;;;13.80;3.27;;;16.60;1.00;;;;;;5038561;28;20514;-80
2023/07/04 04:14:29;;;;;;;10.37;5.90;;;16.50;99.90;;;;;;5040724;28;20452;-78
2023/07/04 04:16:56;;;;;;;9.00;3.17;;;16.60;1.00;;;;;;5039854;28;20457;-79
2023/07/04 04:19:24;;;;;;;10.63;3.27;;;16.60;1.00;;;;;;5040821;28;20532;-78
2023/07/04 04:21:52;;;;;;;11.20;2.70;;;16.60;99.90;;;;;;5033498;28;20992;-79
2023/07/04 04:24:19;;;;;;;8.67;3.23;;;16.70;99.90;;;;;;5029292;28;20541;-80
2023/07/04 04:26:47;;;;;;;10.63;3.50;;;16.50;1.00;;;;;;5022908;28;20461;-80
2023/07/04 04:29:14;;;;;;;9.47;3.70;;;16.60;99.90;;;;;;5026287;28;20462;-79
2023/07/04 04:31:41;;;;;;;9.30;3.23;;;16.60;99.90;;;;;;5040366;28;20528;-78
2023/07/04 04:34:08;;;;;;;15.63;4.00;;;16.60;99.90;;;;;;5045076;28;21061;-79
2023/07/04 04:36:36;;;;;;;8.00;2.70;;;16.60;99.90;;;;;;5043806;28;20461;-79
2023/07/04 04:39:03;;;;;;;9.30;3.43;;;16.50;1.00;;;;;;5045717;28;20523;-77
2023/07/04 04:41:30;;;;;;;12.93;3.70;;;16.60;99.90;;;;;;5045696;28;20492;-79
2023/07/04 04:43:59;;;;;;;6.30;2.33;;;16.50;1.00;;;;;;5046584;28;20456;-79
2023/07/04 04:46:26;;;;;;;13.47;3.83;;;16.50;99.90;;;;;;5044718;28;20460;-79
2023/07/04 04:48:53;;;;;;;7.27;3.50;;;16.40;99.90;;;;;;5040534;28;20526;-79
2023/07/04 04:51:22;;;;;;;8.37;3.63;;;16.50;99.90;;;;;;5032799;28;21091;-79
2023/07/04 04:53:50;;;;;;;8.57;2.80;;;16.50;1.00;;;;;;5043229;28;20457;-83
2023/07/04 04:56:17;;;;;;;8.60;3.20;;;16.50;1.00;;;;;;5037050;28;20456;-80
2023/07/04 04:58:44;;;;;;;7.63;2.53;;;16.60;99.90;;;;;;5037310;28;20457;-81
2023/07/04 05:01:15;;;;;;;12.33;3.50;;;16.50;99.90;;;;;;5035483;28;20522;-80
2023/07/04 05:03:42;;;;;;;11.60;3.77;;;16.50;99.90;;;;;;5036278;28;20947;-81
2023/07/04 05:06:09;;;;;;;15.47;3.93;;;16.50;99.90;;;;;;5039181;28;20517;-79
2023/07/04 05:08:36;;;;;;;15.50;3.63;;;16.60;1.00;;;;;;5009332;28;20473;-76
2023/07/04 05:11:07;;;;;;;11.67;3.30;;;16.60;92.30;;;;;;5027627;28;20476;-78
2023/07/04 05:13:35;;;;;;;8.90;3.80;;;16.70;99.90;;;;;;5025411;28;20513;-78
2023/07/04 05:16:02;;;;;;;11.50;3.43;;;16.70;99.90;;;;;;5026886;28;21117;-78
2023/07/04 05:18:30;;;;;;;10.47;3.60;;;16.70;99.90;;;;;;5029660;28;21032;-78
2023/07/04 05:21:00;;;;;;;9.97;3.67;;;16.70;99.90;;;;;;5026979;28;20511;-78
2023/07/04 05:23:29;;;;;;;9.43;4.40;;;16.70;99.90;;;;;;5028955;28;21109;-79
2023/07/04 05:26:05;;;;;;;11.27;3.90;;;16.70;99.90;;;;;;5026402;28;20500;-79
2023/07/04 05:28:32;;;;;;;13.83;3.57;;;16.70;99.90;;;;;;5028723;28;20520;-81
2023/07/04 05:30:59;;;;;;;10.03;3.13;;;16.80;99.90;;;;;;5025344;28;20475;-78
2023/07/04 05:33:26;;;;;;;11.93;3.67;;;16.80;1.00;;;;;;5031447;28;20452;-79
2023/07/04 05:36:02;;;;;;;7.63;3.00;;;16.80;99.90;;;;;;5031387;28;20465;-78
2023/07/04 05:38:29;;;;;;;14.10;4.00;;;16.80;35.10;;;;;;5028757;28;20449;-78
2023/07/04 05:40:55;;;;;;;10.63;4.10;;;16.70;99.90;;;;;;5027293;28;20496;-79
2023/07/04 05:43:24;;;;;;;12.47;3.77;;;16.70;22.10;;;;;;5027314;28;20446;-79
2023/07/04 05:45:51;;;;;;;9.00;3.93;;;16.70;99.90;;;;;;5027115;28;20544;-78
2023/07/04 05:48:18;;;;;;;14.10;3.90;;;16.80;1.00;;;;;;5027787;28;20461;-78
2023/07/04 05:53:13;;;;;;;12.60;3.97;;;17.00;1.00;;;;;;5063446;22;20507;-79
2023/07/04 05:55:40;;;;;;;13.80;3.43;;;17.00;99.90;;;;;;5025162;28;20476;-77
2023/07/04 05:58:06;;;;;;;9.07;3.23;;;17.10;1.00;;;;;;5025036;28;20445;-80
2023/07/04 06:00:36;;;;;;;14.43;3.63;;;17.10;1.00;;;;;;5032412;28;20454;-79
2023/07/04 06:03:04;;;;;;;18.53;5.67;;;17.30;1.00;;;;;;5043095;28;20490;-79
2023/07/04 06:05:31;;;;;;;12.97;3.93;;;17.30;99.90;;;;;;5021704;28;20456;-77
2023/07/04 06:07:58;;;;;;;13.13;4.13;;;17.30;99.90;;;;;;5022171;28;20456;-78
2023/07/04 06:10:24;;;;;;;10.70;4.40;;;17.30;99.90;;;;;;5019187;28;20482;-79
2023/07/04 06:12:51;;;;;;;10.33;4.10;;;17.30;98.30;;;;;;5018813;28;20551;-77
2023/07/04 06:15:18;;;;;;;13.33;4.53;;;17.40;99.90;;;;;;5022492;28;20459;-78
2023/07/04 06:17:46;;;;;;;11.17;4.20;;;17.50;99.90;;;;;;5036466;28;20541;-81
2023/07/04 06:20:13;;;;;;;14.87;4.73;;;17.50;99.90;;;;;;5015274;28;20457;-78
2023/07/04 06:22:40;;;;;;;9.10;4.27;;;17.60;76.40;;;;;;5016182;28;20488;-79
2023/07/04 06:25:07;;;;;;;13.40;5.00;;;17.60;1.00;;;;;;5011634;28;20535;-79
2023/07/04 06:27:34;;;;;;;15.23;4.67;;;17.60;99.90;;;;;;5014966;28;20491;-79
2023/07/04 06:30:02;;;;;;;12.77;5.13;;;17.80;99.90;;;;;;5005900;28;20464;-79
2023/07/04 06:32:28;;;;;;;14.40;4.43;;;17.80;1.00;;;;;;5014528;28;20468;-79
2023/07/04 06:34:56;;;;;;;12.67;5.20;;;17.90;99.90;;;;;;5015412;28;20535;-78
2023/07/04 06:37:23;;;;;;;11.17;5.13;;;17.90;99.90;;;;;;5014040;28;20973;-78
2023/07/04 06:39:50;;;;;;;21.50;5.80;;;17.80;1.20;;;;;;5012223;28;20456;-79
2023/07/04 06:42:17;;;;;;;13.37;5.13;;;17.80;53.30;;;;;;5013822;28;20870;-78
2023/07/04 06:44:45;;;;;;;13.07;5.50;;;17.80;99.90;;;;;;5009753;28;20487;-77
2023/07/04 06:47:12;;;;;;;8.10;4.13;;;17.80;1.00;;;;;;5015704;28;20456;-79
2023/07/04 06:49:39;;;;;;;11.63;4.63;;;17.90;99.90;;;;;;5017711;28;20457;-78
2023/07/04 06:52:08;;;;;;;6.40;4.23;;;17.80;99.90;;;;;;5017102;28;20552;-79
2023/07/04 06:54:34;;;;;;;13.67;5.67;;;17.90;99.90;;;;;;5014732;28;20452;-79
2023/07/04 06:57:04;;;;;;;7.83;4.07;;;17.90;99.90;;;;;;5015845;28;20915;-78
2023/07/04 06:59:31;;;;;;;8.53;3.50;;;18.00;1.00;;;;;;5008232;28;21064;-79
2023/07/04 07:01:58;;;;;;;11.43;5.03;;;18.00;99.90;;;;;;5015144;28;20488;-79
2023/07/04 07:04:24;;;;;;;15.63;5.33;;;18.00;1.00;;;;;;5010973;28;20451;-79
2023/07/04 07:06:51;;;;;;;11.27;4.80;;;17.90;99.90;;;;;;5014967;28;20957;-79
2023/07/04 07:09:19;;;;;;;13.33;5.80;;;18.00;99.90;;;;;;5017871;28;20484;-80
2023/07/04 07:11:46;;;;;;;9.97;4.40;;;18.00;99.90;;;;;;5016191;28;20481;-79
2023/07/04 07:14:13;;;;;;;15.33;5.07;;;18.00;99.90;;;;;;5013005;28;20539;-79
2023/07/04 07:16:40;;;;;;;8.67;4.37;;;18.10;99.90;;;;;;5011711;28;20972;-79
2023/07/04 07:19:06;;;;;;;11.20;3.77;;;18.20;99.90;;;;;;5016427;28;20541;-80
2023/07/04 07:21:33;;;;;;;8.10;4.07;;;18.20;99.90;;;;;;5014861;28;20493;-79
2023/07/04 07:24:01;;;;;;;11.27;3.97;;;18.30;99.90;;;;;;5009096;28;20953;-79
2023/07/04 07:26:30;;;;;;;12.50;4.60;;;18.40;99.90;;;;;;5016157;28;20456;-79
2023/07/04 07:28:57;;;;;;;17.50;5.40;;;18.40;99.90;;;;;;5010978;28;20460;-81
2023/07/04 07:31:25;;;;;;;9.37;4.20;;;18.30;1.00;;;;;;5016062;28;20533;-80
2023/07/04 07:33:53;;;;;;;16.70;5.07;;;18.40;28.10;;;;;;5014992;28;20461;-79
2023/07/04 07:36:22;;;;;;;9.20;5.30;;;18.40;1.00;;;;;;5017673;28;20459;-79
2023/07/04 07:38:50;;;;;;;8.27;3.60;;;18.40;1.00;;;;;;5013414;28;20545;-79
2023/07/04 07:41:18;;;;;;;16.17;3.97;;;18.50;1.00;;;;;;5016754;28;20493;-79
2023/07/04 07:43:47;;;;;;;12.97;3.47;;;18.60;1.00;;;;;;5021259;28;20471;-77
2023/07/04 07:46:16;;;;;;;6.67;3.37;;;18.60;1.00;;;;;;5012196;28;21680;-79
2023/07/04 07:48:43;;;;;;;13.73;3.40;;;18.60;99.90;;;;;;5018390;28;20468;-79
2023/07/04 07:51:12;;;;;;;7.70;3.43;;;18.60;99.90;;;;;;5014766;28;20470;-79
2023/07/04 07:53:40;;;;;;;6.43;2.83;;;18.80;99.90;;;;;;5016708;28;20450;-80
2023/07/04 07:56:08;;;;;;;11.03;3.10;;;18.90;99.90;;;;;;5012023;28;20461;-80
2023/07/04 07:58:36;;;;;;;8.40;3.53;;;19.10;99.90;;;;;;5018500;28;20454;-79
2023/07/04 08:01:12;;;;;;;9.43;3.70;;;19.40;99.90;;;;;;5021034;28;20457;-79
2023/07/04 08:03:39;;;;;;;13.10;3.87;;;19.40;99.90;;;;;;5019421;28;20889;-78
2023/07/04 08:06:05;;;;;;;8.47;3.43;;;19.40;15.90;;;;;;5023924;28;20445;-78
2023/07/04 08:08:32;;;;;;;7.37;3.10;;;19.40;30.70;;;;;;5023570;28;20455;-80
2023/07/04 08:10:59;;;;;;;10.70;3.70;;;19.40;16.40;;;;;;5026293;28;20888;-80
2023/07/04 08:13:26;;;;;;;9.43;3.80;;;19.40;30.70;;;;;;5018932;28;20531;-81
2023/07/04 08:15:53;;;;;;;11.63;3.30;;;19.40;36.60;;;;;;5024452;28;20530;-80
2023/07/04 08:18:23;;;;;;;8.60;3.53;;;19.50;36.90;;;;;;5022208;28;20453;-80
2023/07/04 08:20:57;;;;;;;10.90;3.50;;;19.70;8.80;;;;;;5022355;28;20448;-78
2023/07/04 08:23:24;;;;;;;11.43;3.17;;;19.70;1.00;;;;;;5039217;28;20480;-78
2023/07/04 08:25:50;;;;;;;11.83;3.20;;;19.70;1.00;;;;;;5021510;28;20826;-79
2023/07/04 08:28:18;;;;;;;8.57;3.30;;;19.60;1.00;;;;;;5023210;28;20453;-79
2023/07/04 08:30:45;;;;;;;10.33;3.00;;;19.70;1.00;;;;;;5027601;28;20843;-80
2023/07/04 08:33:16;;;;;;;6.87;2.83;;;19.90;1.00;;;;;;5023219;28;20538;-80
2023/07/04 08:35:54;;;;;;;9.73;2.80;;;20.10;1.00;;;;;;5029712;28;20453;-80
2023/07/04 08:38:21;;;;;;;11.67;3.10;;;20.20;1.00;;;;;;5042796;28;20448;-79
2023/07/04 08:40:48;;;;;;;8.37;2.63;;;20.20;1.00;;;;;;5046931;28;20595;-80
2023/07/04 08:43:20;;;;;;;8.53;2.90;;;20.10;1.00;;;;;;5033578;28;20553;-80
2023/07/04 08:45:48;;;;;;;8.37;2.90;;;20.40;1.00;;;;;;5020878;28;20528;-80
2023/07/04 08:48:17;;;;;;;6.47;2.63;;;20.50;1.00;;;;;;5022102;28;20540;-83
2023/07/04 08:50:48;;;;;;;8.87;2.07;;;20.50;1.00;;;;;;5022852;28;20828;-80
2023/07/04 08:53:19;;;;;;;8.43;2.73;;;20.50;1.00;;;;;;5032986;28;20457;-81
2023/07/04 08:55:54;;;;;;;8.00;2.47;;;20.40;1.00;;;;;;5024642;28;21029;-79
2023/07/04 08:58:23;;;;;;;7.60;2.37;;;20.70;1.00;;;;;;5019060;28;21196;-79
2023/07/04 09:00:50;;;;;;;7.60;2.50;;;20.90;1.00;;;;;;5019083;28;20898;-80
2023/07/04 09:03:26;;;;;;;5.80;2.00;;;20.70;1.00;;;;;;5018729;28;20485;-80
2023/07/04 09:06:06;;;;;;;7.00;2.27;;;20.80;1.00;;;;;;5017622;28;20534;-79
2023/07/04 09:08:57;;;;;;;11.30;2.70;;;20.70;1.00;;;;;;5017946;28;20456;-80
2023/07/04 09:11:25;;;;;;;6.50;2.43;;;20.60;1.00;;;;;;5024275;28;20475;-80
2023/07/04 09:13:56;;;;;;;5.20;2.10;;;20.70;1.00;;;;;;5021171;28;20506;-80
2023/07/04 09:16:28;;;;;;;7.20;1.97;;;21.00;1.00;;;;;;5014279;28;20491;-80
2023/07/04 09:18:58;;;;;;;4.20;1.80;;;21.30;1.00;;;;;;5023296;28;20450;-78
2023/07/04 09:21:28;;;;;;;6.03;2.40;;;21.30;1.00;;;;;;5023513;28;21645;-78
2023/07/04 09:23:58;;;;;;;7.77;2.53;;;21.30;1.00;;;;;;5024167;28;20457;-80
2023/07/04 09:26:28;;;;;;;8.97;2.43;;;21.40;1.00;;;;;;5018818;28;20978;-80
2023/07/04 09:28:57;;;;;;;6.13;1.90;;;21.70;1.00;;;;;;5015116;28;20454;-80
2023/07/04 09:31:26;;;;;;;7.60;2.17;;;21.70;99.90;;;;;;5014469;28;20478;-80
2023/07/04 09:33:54;;;;;;;5.70;2.37;;;21.80;99.90;;;;;;5025452;28;20456;-80
2023/07/04 09:36:22;;;;;;;7.60;2.40;;;22.00;99.90;;;;;;5020062;28;20453;-78
2023/07/04 09:38:55;;;;;;;10.80;2.40;;;22.10;99.90;;;;;;5014929;28;20468;-80
2023/07/04 09:41:26;;;;;;;6.77;2.67;;;22.30;99.90;;;;;;5021213;28;20466;-79
2023/07/04 09:43:53;;;;;;;6.00;2.00;;;22.60;99.90;;;;;;5026718;28;20449;-79
2023/07/04 09:46:27;;;;;;;9.17;2.70;;;22.60;99.90;;;;;;5020974;28;20453;-79
2023/07/04 09:48:56;;;;;;;5.30;2.13;;;22.90;99.90;;;;;;5018181;28;20450;-81
2023/07/04 09:51:26;;;;;;;5.40;2.45;;;22.90;99.90;;;;;;4986643;28;1063425;-80
2023/07/04 09:56:47;;;;;;;9.50;2.03;;;23.00;99.90;;;;;;5144503;27;20521;-79
2023/07/04 09:59:16;;;;;;;4.67;1.60;;;23.10;99.90;;;;;;5143627;28;20465;-79
2023/07/04 10:01:45;;;;;;;5.97;1.73;;;23.00;99.90;;;;;;5135574;28;20564;-79
2023/07/04 10:04:14;;;;;;;6.63;2.00;;;23.30;99.90;;;;;;5121060;28;20450;-78
2023/07/04 10:06:43;;;;;;;5.20;2.17;;;23.40;99.90;;;;;;5139175;28;20508;-78
2023/07/04 10:09:18;;;;;;;5.50;2.10;;;23.60;99.90;;;;;;5125634;27;20473;-80
2023/07/04 10:11:47;;;;;;;10.07;2.30;;;23.70;99.90;;;;;;5126701;28;20472;-79
2023/07/04 10:14:15;;;;;;;5.40;2.10;;;23.90;99.90;;;;;;5123212;28;20543;-79
2023/07/04 10:16:48;;;;;;;5.40;1.83;;;23.80;99.90;;;;;;5125061;27;20545;-79
2023/07/04 10:19:19;;;;;;;6.60;2.37;;;23.80;99.90;;;;;;5122415;28;20516;-80
2023/07/04 10:21:48;;;;;;;6.77;1.97;;;23.90;99.90;;;;;;5122358;28;20927;-79
2023/07/04 10:24:18;;;;;;;5.80;2.13;;;24.30;99.90;;;;;;5122844;28;20481;-78
2023/07/04 10:26:48;;;;;;;4.03;1.90;;;24.60;99.90;;;;;;5123606;28;20441;-79
2023/07/04 10:29:17;;;;;;;8.33;2.10;;;24.60;99.90;;;;;;5121472;28;20925;-79
2023/07/04 10:31:45;;;;;;;6.40;2.30;;;24.70;99.90;;;;;;5120514;28;20469;-79
2023/07/04 10:34:18;;;;;;;5.30;1.63;;;24.60;99.90;;;;;;5113817;28;20493;-79
2023/07/04 10:36:49;;;;;;;3.70;1.60;;;24.50;99.90;;;;;;5118391;28;20476;-78
2023/07/04 10:39:17;;;;;;;7.17;2.10;;;24.20;99.90;;;;;;5121965;28;20449;-79
2023/07/04 10:41:54;;;;;;;7.07;2.37;;;23.80;99.90;;;;;;5121099;28;20473;-79
2023/07/04 10:44:23;;;;;;;4.03;1.70;;;23.70;99.90;;;;;;5120047;28;20517;-79
2023/07/04 10:46:56;;;;;;;4.70;2.23;;;23.50;99.90;;;;;;5120078;28;20829;-79
2023/07/04 10:49:26;;;;;;;10.73;3.10;;;23.60;99.90;;;;;;5120616;28;20438;-79
2023/07/04 10:51:58;;;;;;;8.03;2.20;;;23.50;99.90;;;;;;5124610;28;20464;-78
2023/07/04 10:54:25;;;;;;;10.27;3.23;;;23.40;99.90;;;;;;5118314;27;20457;-79
2023/07/04 10:56:59;;;;;;;5.87;1.90;;;23.20;99.90;;;;;;5114247;28;20636;-78
2023/07/04 10:59:31;;;;;;;7.03;2.27;;;23.30;99.90;;;;;;5115837;28;20896;-79
2023/07/04 11:02:03;;;;;;;11.43;2.37;;;23.50;99.90;;;;;;5108323;28;20835;-78
2023/07/04 11:04:36;;;;;;;5.63;2.33;;;23.70;99.90;;;;;;5118853;28;20443;-82
2023/07/04 11:07:06;;;;;;;5.40;1.93;;;23.70;99.90;;;;;;5109278;28;20486;-80
2023/07/04 11:09:35;;;;;;;7.10;2.70;;;24.00;99.90;;;;;;5106804;28;20458;-79
2023/07/04 11:12:07;;;;;;;7.43;2.57;;;24.40;99.90;;;;;;5105468;28;20575;-79
2023/07/04 11:14:39;;;;;;;7.80;2.47;;;24.60;99.90;;;;;;5108471;28;20458;-80
2023/07/04 11:17:11;;;;;;;8.40;2.63;;;25.00;99.90;;;;;;5107360;28;20571;-79
2023/07/04 11:19:54;;;;;;;3.20;1.93;;;25.40;99.90;;;;;;5108649;28;20495;-80
2023/07/04 11:22:21;;;;;;;4.73;2.10;;;25.80;99.90;;;;;;5107826;28;20469;-79
2023/07/04 11:24:54;;;;;;;3.87;1.60;;;26.20;99.90;;;;;;5111304;28;20532;-79
2023/07/04 11:27:24;;;;;;;5.10;1.90;;;26.40;99.90;;;;;;5110149;28;20442;-81
2023/07/04 11:29:53;;;;;;;6.20;2.47;;;26.40;99.90;;;;;;5107085;28;20450;-78
2023/07/04 11:32:25;;;;;;;14.90;2.60;;;26.60;99.90;;;;;;5108040;28;20466;-80
2023/07/04 11:34:54;;;;;;;4.67;2.10;;;26.60;99.90;;;;;;5112324;28;20481;-79
2023/07/04 11:37:31;;;;;;;6.07;2.53;;;26.80;99.90;;;;;;5107135;28;20453;-79
2023/07/04 11:40:01;;;;;;;8.43;2.00;;;26.60;99.90;;;;;;5108713;28;21005;-80
2023/07/04 11:42:38;;;;;;;6.10;2.10;;;26.60;99.90;;;;;;5103093;28;20466;-79
2023/07/04 11:45:08;;;;;;;5.60;2.10;;;26.80;99.90;;;;;;5102729;28;20438;-79
2023/07/04 11:47:40;;;;;;;4.60;2.00;;;27.00;99.90;;;;;;5105723;28;20537;-80
2023/07/04 11:50:12;;;;;;;5.30;1.30;;;27.00;99.90;;;;;;5107041;28;20462;-80
2023/07/04 11:52:42;;;;;;;7.30;2.47;;;26.90;99.90;;;;;;5082822;22;20878;-80
2023/07/04 11:55:15;;;;;;;5.23;2.20;;;27.00;99.90;;;;;;5019385;28;21104;-80
2023/07/04 12:01:05;;;;;;;6.33;2.10;;;27.90;99.90;;;;;;5129301;27;1259554;-81
2023/07/04 12:03:56;;;;;;;4.23;1.60;;;27.50;99.90;;;;;;5140910;27;20488;-82
2023/07/04 12:06:53;;;;;;;7.10;2.63;;;27.50;99.90;;;;;;5147171;27;20860;-80
2023/07/04 12:09:29;;;;;;;4.00;1.63;;;27.50;99.90;;;;;;5148193;27;20468;-80
2023/07/04 12:11:57;;;;;;;7.23;2.00;;;27.70;99.90;;;;;;5152819;27;20498;-81
2023/07/04 12:14:24;;;;;;;9.43;3.00;;;28.00;99.90;;;;;;5152050;27;20447;-80
2023/07/04 12:16:54;;;;;;;6.17;1.90;;;27.80;99.90;;;;;;5147770;27;20439;-80
2023/07/04 12:19:23;;;;;;;7.67;2.53;;;27.40;99.90;;;;;;5154089;27;20614;-81
2023/07/04 12:21:51;;;;;;;7.47;2.30;;;27.30;99.90;;;;;;5152207;27;20466;-81
2023/07/04 12:24:22;;;;;;;7.13;2.37;;;27.60;99.90;;;;;;5151022;27;20446;-81
2023/07/04 12:26:57;;;;;;;7.50;3.33;;;27.00;99.90;;;;;;5151086;27;20457;-80
2023/07/04 12:29:24;;;;;;;6.60;2.70;;;26.60;99.90;;;;;;5150674;27;20471;-83
2023/07/04 12:32:09;;;;;;;5.83;2.73;;;26.20;99.90;;;;;;5145880;27;20474;-83
2023/07/04 12:34:36;;;;;;;9.80;3.23;;;26.30;99.90;;;;;;5145827;27;20863;-80
2023/07/04 12:37:05;;;;;;;6.23;2.40;;;26.30;99.90;;;;;;5143709;27;20456;-80
2023/07/04 12:39:41;;;;;;;9.30;3.10;;;26.20;99.90;;;;;;5140737;27;20483;-81
2023/07/04 12:42:13;;;;;;;8.30;3.00;;;26.50;99.90;;;;;;5147401;27;20474;-80
2023/07/04 12:44:40;;;;;;;9.77;2.90;;;26.40;99.90;;;;;;5142200;27;20449;-79
2023/07/04 12:47:15;;;;;;;5.93;2.90;;;26.10;99.90;;;;;;5138643;27;20471;-80
2023/07/04 12:49:42;;;;;;;5.73;2.40;;;25.70;99.90;;;;;;5139810;27;20460;-80
2023/07/04 12:52:12;;;;;;;5.77;2.80;;;25.30;99.90;;;;;;5141187;27;20563;-81
2023/07/04 12:54:39;;;;;;;5.27;2.20;;;25.30;99.90;;;;;;5137578;27;20452;-80
2023/07/04 12:57:11;;;;;;;7.13;2.70;;;25.20;99.90;;;;;;5140869;27;20866;-81
2023/07/04 12:59:42;;;;;;;4.77;3.00;;;25.30;99.90;;;;;;5146090;27;20483;-82
2023/07/04 13:02:22;;;;;;;4.90;2.23;;;25.20;99.90;;;;;;5144792;27;20466;-80
2023/07/04 13:04:49;;;;;;;5.63;2.17;;;24.80;99.90;;;;;;5146816;27;20486;-81
2023/07/04 13:07:21;;;;;;;7.20;3.50;;;24.70;99.90;;;;;;5139539;27;20449;-79